sensor_id;sensor_type;location;lat;lon;timestamp;temperature;humidity
7447;DHT22;3765;47.962;7.952;2023-05-25T00:00:19;10.40;65.90
7447;DHT22;3765;47.962;7.952;2023-05-25T00:02:47;10.40;65.80
7447;DHT22;3765;47.962;7.952;2023-05-25T00:05:20;10.40;66.00
7447;DHT22;3765;47.962;7.952;2023-05-25T00:07:56;10.40;65.90
7447;DHT22;3765;47.962;7.952;2023-05-25T00:10:28;10.40;65.80
7447;DHT22;3765;47.962;7.952;2023-05-25T00:13:06;10.40;65.90
7447;DHT22;3765;47.962;7.952;2023-05-25T00:15:37;10.40;65.90
7447;DHT22;3765;47.962;7.952;2023-05-25T00:18:08;10.40;65.90
7447;DHT22;3765;47.962;7.952;2023-05-25T00:20:42;10.40;66.00
7447;DHT22;3765;47.962;7.952;2023-05-25T00:23:14;10.40;66.00
7447;DHT22;3765;47.962;7.952;2023-05-25T00:25:46;10.40;66.20
7447;DHT22;3765;47.962;7.952;2023-05-25T00:28:17;10.30;66.30
7447;DHT22;3765;47.962;7.952;2023-05-25T00:30:46;10.20;66.60
7447;DHT22;3765;47.962;7.952;2023-05-25T00:33:17;10.20;66.90
7447;DHT22;3765;47.962;7.952;2023-05-25T00:35:51;10.20;67.00
7447;DHT22;3765;47.962;7.952;2023-05-25T00:38:22;10.30;67.00
7447;DHT22;3765;47.962;7.952;2023-05-25T00:40:55;10.30;67.00
7447;DHT22;3765;47.962;7.952;2023-05-25T00:43:39;10.30;66.90
7447;DHT22;3765;47.962;7.952;2023-05-25T00:46:09;10.30;67.00
7447;DHT22;3765;47.962;7.952;2023-05-25T00:48:38;10.30;67.00
7447;DHT22;3765;47.962;7.952;2023-05-25T00:51:10;10.40;67.00
7447;DHT22;3765;47.962;7.952;2023-05-25T00:53:45;10.30;66.90
7447;DHT22;3765;47.962;7.952;2023-05-25T00:56:21;10.30;67.00
7447;DHT22;3765;47.962;7.952;2023-05-25T00:58:54;10.30;67.00
7447;DHT22;3765;47.962;7.952;2023-05-25T01:01:22;10.30;67.00
7447;DHT22;3765;47.962;7.952;2023-05-25T01:04:00;10.40;67.00
7447;DHT22;3765;47.962;7.952;2023-05-25T01:06:37;10.30;67.00
7447;DHT22;3765;47.962;7.952;2023-05-25T01:09:08;10.20;67.30
7447;DHT22;3765;47.962;7.952;2023-05-25T01:11:40;10.20;67.50
7447;DHT22;3765;47.962;7.952;2023-05-25T01:14:13;10.30;67.60
7447;DHT22;3765;47.962;7.952;2023-05-25T01:16:47;10.30;67.60
7447;DHT22;3765;47.962;7.952;2023-05-25T01:19:16;10.20;67.50
7447;DHT22;3765;47.962;7.952;2023-05-25T01:22:06;10.10;67.80
7447;DHT22;3765;47.962;7.952;2023-05-25T01:24:38;10.00;68.00
7447;DHT22;3765;47.962;7.952;2023-05-25T01:27:11;10.10;68.20
7447;DHT22;3765;47.962;7.952;2023-05-25T01:29:43;10.10;68.20
7447;DHT22;3765;47.962;7.952;2023-05-25T01:32:16;10.10;68.20
7447;DHT22;3765;47.962;7.952;2023-05-25T01:34:56;10.10;68.10
7447;DHT22;3765;47.962;7.952;2023-05-25T01:37:30;10.10;68.30
7447;DHT22;3765;47.962;7.952;2023-05-25T01:40:00;10.10;68.50
7447;DHT22;3765;47.962;7.952;2023-05-25T01:42:32;10.10;68.60
7447;DHT22;3765;47.962;7.952;2023-05-25T01:45:06;10.20;68.70
7447;DHT22;3765;47.962;7.952;2023-05-25T01:47:56;10.10;68.50
7447;DHT22;3765;47.962;7.952;2023-05-25T01:50:37;10.10;68.60
7447;DHT22;3765;47.962;7.952;2023-05-25T01:53:17;10.10;68.70
7447;DHT22;3765;47.962;7.952;2023-05-25T01:56:05;10.10;68.80
7447;DHT22;3765;47.962;7.952;2023-05-25T01:58:53;10.00;68.80
7447;DHT22;3765;47.962;7.952;2023-05-25T02:01:25;9.90;68.90
7447;DHT22;3765;47.962;7.952;2023-05-25T02:03:56;10.00;69.00
7447;DHT22;3765;47.962;7.952;2023-05-25T02:06:42;10.00;68.90
7447;DHT22;3765;47.962;7.952;2023-05-25T02:09:15;10.10;68.90
7447;DHT22;3765;47.962;7.952;2023-05-25T02:11:58;10.10;68.80
7447;DHT22;3765;47.962;7.952;2023-05-25T02:14:29;10.20;68.80
7447;DHT22;3765;47.962;7.952;2023-05-25T02:16:57;10.20;68.70
7447;DHT22;3765;47.962;7.952;2023-05-25T02:19:29;10.30;68.50
7447;DHT22;3765;47.962;7.952;2023-05-25T02:21:59;10.30;68.40
7447;DHT22;3765;47.962;7.952;2023-05-25T02:24:33;10.30;68.40
7447;DHT22;3765;47.962;7.952;2023-05-25T02:27:02;10.40;68.40
7447;DHT22;3765;47.962;7.952;2023-05-25T02:29:38;10.30;68.40
7447;DHT22;3765;47.962;7.952;2023-05-25T02:32:10;10.40;68.40
7447;DHT22;3765;47.962;7.952;2023-05-25T02:34:39;10.40;68.40
7447;DHT22;3765;47.962;7.952;2023-05-25T02:37:11;10.40;68.50
7447;DHT22;3765;47.962;7.952;2023-05-25T02:39:45;10.40;68.40
7447;DHT22;3765;47.962;7.952;2023-05-25T02:42:14;10.40;68.50
7447;DHT22;3765;47.962;7.952;2023-05-25T02:44:46;10.50;68.40
7447;DHT22;3765;47.962;7.952;2023-05-25T02:47:15;10.50;68.30
7447;DHT22;3765;47.962;7.952;2023-05-25T02:49:47;10.50;68.40
7447;DHT22;3765;47.962;7.952;2023-05-25T02:52:17;10.60;68.40
7447;DHT22;3765;47.962;7.952;2023-05-25T02:54:54;10.60;68.40
7447;DHT22;3765;47.962;7.952;2023-05-25T02:57:39;10.60;68.30
7447;DHT22;3765;47.962;7.952;2023-05-25T03:00:09;10.60;68.30
7447;DHT22;3765;47.962;7.952;2023-05-25T03:02:41;10.60;68.20
7447;DHT22;3765;47.962;7.952;2023-05-25T03:05:14;10.60;68.10
7447;DHT22;3765;47.962;7.952;2023-05-25T03:07:46;10.60;68.40
7447;DHT22;3765;47.962;7.952;2023-05-25T03:10:33;10.60;68.30
7447;DHT22;3765;47.962;7.952;2023-05-25T03:13:06;10.60;68.10
7447;DHT22;3765;47.962;7.952;2023-05-25T03:15:37;10.70;68.20
7447;DHT22;3765;47.962;7.952;2023-05-25T03:18:09;10.80;68.20
7447;DHT22;3765;47.962;7.952;2023-05-25T03:20:37;10.80;68.10
7447;DHT22;3765;47.962;7.952;2023-05-25T03:23:08;10.80;68.10
7447;DHT22;3765;47.962;7.952;2023-05-25T03:25:37;10.90;68.00
7447;DHT22;3765;47.962;7.952;2023-05-25T03:28:09;10.80;67.90
7447;DHT22;3765;47.962;7.952;2023-05-25T03:30:54;10.90;68.00
7447;DHT22;3765;47.962;7.952;2023-05-25T03:33:25;11.00;67.90
7447;DHT22;3765;47.962;7.952;2023-05-25T03:36:06;11.10;67.60
7447;DHT22;3765;47.962;7.952;2023-05-25T03:38:35;11.10;67.40
7447;DHT22;3765;47.962;7.952;2023-05-25T03:41:07;11.10;67.30
7447;DHT22;3765;47.962;7.952;2023-05-25T03:43:36;11.10;67.20
7447;DHT22;3765;47.962;7.952;2023-05-25T03:46:08;11.20;67.20
7447;DHT22;3765;47.962;7.952;2023-05-25T03:48:37;11.30;67.00
7447;DHT22;3765;47.962;7.952;2023-05-25T03:51:07;11.30;67.00
7447;DHT22;3765;47.962;7.952;2023-05-25T03:53:35;11.40;66.90
7447;DHT22;3765;47.962;7.952;2023-05-25T03:56:04;11.50;66.70
7447;DHT22;3765;47.962;7.952;2023-05-25T03:58:50;11.50;66.60
7447;DHT22;3765;47.962;7.952;2023-05-25T04:01:19;11.50;66.70
7447;DHT22;3765;47.962;7.952;2023-05-25T04:04:04;11.50;66.80
7447;DHT22;3765;47.962;7.952;2023-05-25T04:06:44;11.50;66.60
7447;DHT22;3765;47.962;7.952;2023-05-25T04:09:29;11.50;66.50
7447;DHT22;3765;47.962;7.952;2023-05-25T04:11:59;11.50;66.40
7447;DHT22;3765;47.962;7.952;2023-05-25T04:14:34;11.60;66.20
7447;DHT22;3765;47.962;7.952;2023-05-25T04:17:06;11.60;66.30
7447;DHT22;3765;47.962;7.952;2023-05-25T04:19:47;11.60;66.20
7447;DHT22;3765;47.962;7.952;2023-05-25T04:22:18;11.60;66.20
7447;DHT22;3765;47.962;7.952;2023-05-25T04:24:52;11.70;66.20
7447;DHT22;3765;47.962;7.952;2023-05-25T04:27:25;11.70;66.10
7447;DHT22;3765;47.962;7.952;2023-05-25T04:30:13;11.70;66.20
7447;DHT22;3765;47.962;7.952;2023-05-25T04:33:03;11.70;66.10
7447;DHT22;3765;47.962;7.952;2023-05-25T04:35:32;11.80;66.20
7447;DHT22;3765;47.962;7.952;2023-05-25T04:38:05;11.90;66.20
7447;DHT22;3765;47.962;7.952;2023-05-25T04:40:37;12.00;66.20
7447;DHT22;3765;47.962;7.952;2023-05-25T04:43:19;12.10;66.00
7447;DHT22;3765;47.962;7.952;2023-05-25T04:45:59;12.30;65.90
7447;DHT22;3765;47.962;7.952;2023-05-25T04:48:30;12.30;65.80
7447;DHT22;3765;47.962;7.952;2023-05-25T04:51:12;12.40;65.80
7447;DHT22;3765;47.962;7.952;2023-05-25T04:53:46;12.40;65.70
7447;DHT22;3765;47.962;7.952;2023-05-25T04:56:18;12.50;65.40
7447;DHT22;3765;47.962;7.952;2023-05-25T04:58:55;12.60;65.20
7447;DHT22;3765;47.962;7.952;2023-05-25T05:01:41;12.70;65.00
7447;DHT22;3765;47.962;7.952;2023-05-25T05:04:12;12.80;64.50
7447;DHT22;3765;47.962;7.952;2023-05-25T05:06:46;12.90;64.10
7447;DHT22;3765;47.962;7.952;2023-05-25T05:09:15;13.00;63.90
7447;DHT22;3765;47.962;7.952;2023-05-25T05:11:53;13.00;63.40
7447;DHT22;3765;47.962;7.952;2023-05-25T05:14:24;13.00;62.90
7447;DHT22;3765;47.962;7.952;2023-05-25T05:17:00;12.90;62.90
7447;DHT22;3765;47.962;7.952;2023-05-25T05:19:31;13.00;62.90
7447;DHT22;3765;47.962;7.952;2023-05-25T05:22:03;12.80;62.30
7447;DHT22;3765;47.962;7.952;2023-05-25T05:24:35;13.00;62.70
7447;DHT22;3765;47.962;7.952;2023-05-25T05:27:06;12.90;62.50
7447;DHT22;3765;47.962;7.952;2023-05-25T05:29:50;13.10;62.50
7447;DHT22;3765;47.962;7.952;2023-05-25T05:32:37;12.90;62.00
7447;DHT22;3765;47.962;7.952;2023-05-25T05:35:26;12.80;62.50
7447;DHT22;3765;47.962;7.952;2023-05-25T05:38:06;12.70;62.60
7447;DHT22;3765;47.962;7.952;2023-05-25T05:40:41;12.80;62.80
7447;DHT22;3765;47.962;7.952;2023-05-25T05:43:24;12.60;62.30
7447;DHT22;3765;47.962;7.952;2023-05-25T05:45:56;12.40;62.70
7447;DHT22;3765;47.962;7.952;2023-05-25T05:48:28;12.60;62.90
7447;DHT22;3765;47.962;7.952;2023-05-25T05:51:05;12.60;62.70
7447;DHT22;3765;47.962;7.952;2023-05-25T05:53:37;12.80;62.80
7447;DHT22;3765;47.962;7.952;2023-05-25T05:56:16;12.80;62.90
7447;DHT22;3765;47.962;7.952;2023-05-25T05:58:49;12.80;62.40
7447;DHT22;3765;47.962;7.952;2023-05-25T06:01:20;12.80;62.80
7447;DHT22;3765;47.962;7.952;2023-05-25T06:04:05;13.10;63.00
7447;DHT22;3765;47.962;7.952;2023-05-25T06:06:44;13.30;62.20
7447;DHT22;3765;47.962;7.952;2023-05-25T06:09:24;13.40;62.10
7447;DHT22;3765;47.962;7.952;2023-05-25T06:11:55;13.50;62.00
7447;DHT22;3765;47.962;7.952;2023-05-25T06:14:39;13.40;61.80
7447;DHT22;3765;47.962;7.952;2023-05-25T06:17:13;13.70;61.80
7447;DHT22;3765;47.962;7.952;2023-05-25T06:19:51;13.90;61.30
7447;DHT22;3765;47.962;7.952;2023-05-25T06:22:25;13.90;61.10
7447;DHT22;3765;47.962;7.952;2023-05-25T06:24:57;13.90;61.00
7447;DHT22;3765;47.962;7.952;2023-05-25T06:27:28;14.10;61.00
7447;DHT22;3765;47.962;7.952;2023-05-25T06:29:56;14.30;60.70
7447;DHT22;3765;47.962;7.952;2023-05-25T06:32:26;14.40;60.40
7447;DHT22;3765;47.962;7.952;2023-05-25T06:35:07;14.50;60.20
7447;DHT22;3765;47.962;7.952;2023-05-25T06:37:43;14.60;59.90
7447;DHT22;3765;47.962;7.952;2023-05-25T06:40:14;14.60;59.80
7447;DHT22;3765;47.962;7.952;2023-05-25T06:42:58;15.00;59.40
7447;DHT22;3765;47.962;7.952;2023-05-25T06:45:27;14.80;59.30
7447;DHT22;3765;47.962;7.952;2023-05-25T06:47:55;14.90;59.50
7447;DHT22;3765;47.962;7.952;2023-05-25T06:50:53;14.90;59.50
7447;DHT22;3765;47.962;7.952;2023-05-25T06:53:40;15.30;59.20
7447;DHT22;3765;47.962;7.952;2023-05-25T06:56:10;15.30;59.30
7447;DHT22;3765;47.962;7.952;2023-05-25T06:58:42;15.10;59.30
7447;DHT22;3765;47.962;7.952;2023-05-25T07:01:11;15.20;59.40
7447;DHT22;3765;47.962;7.952;2023-05-25T07:03:42;15.40;59.50
7447;DHT22;3765;47.962;7.952;2023-05-25T07:06:45;15.80;59.20
7447;DHT22;3765;47.962;7.952;2023-05-25T07:09:20;15.60;58.60
7447;DHT22;3765;47.962;7.952;2023-05-25T07:11:49;15.60;58.30
7447;DHT22;3765;47.962;7.952;2023-05-25T07:14:17;15.40;58.60
7447;DHT22;3765;47.962;7.952;2023-05-25T07:16:55;15.40;59.00
7447;DHT22;3765;47.962;7.952;2023-05-25T07:19:30;15.60;58.60
7447;DHT22;3765;47.962;7.952;2023-05-25T07:22:09;15.40;58.50
7447;DHT22;3765;47.962;7.952;2023-05-25T07:25:01;15.40;58.60
7447;DHT22;3765;47.962;7.952;2023-05-25T07:27:38;15.30;58.80
7447;DHT22;3765;47.962;7.952;2023-05-25T07:30:12;15.50;58.80
7447;DHT22;3765;47.962;7.952;2023-05-25T07:32:56;15.80;58.30
7447;DHT22;3765;47.962;7.952;2023-05-25T07:35:25;15.70;58.50
7447;DHT22;3765;47.962;7.952;2023-05-25T07:37:59;15.90;58.10
7447;DHT22;3765;47.962;7.952;2023-05-25T07:40:27;15.80;58.00
7447;DHT22;3765;47.962;7.952;2023-05-25T07:42:55;16.20;58.00
7447;DHT22;3765;47.962;7.952;2023-05-25T07:45:23;16.40;57.70
7447;DHT22;3765;47.962;7.952;2023-05-25T07:47:52;16.70;57.30
7447;DHT22;3765;47.962;7.952;2023-05-25T07:50:20;16.80;57.10
7447;DHT22;3765;47.962;7.952;2023-05-25T07:52:49;16.70;56.10
7447;DHT22;3765;47.962;7.952;2023-05-25T07:55:19;16.70;56.80
7447;DHT22;3765;47.962;7.952;2023-05-25T07:57:47;16.80;56.90
7447;DHT22;3765;47.962;7.952;2023-05-25T08:00:16;17.10;56.60
7447;DHT22;3765;47.962;7.952;2023-05-25T08:02:44;17.30;56.40
7447;DHT22;3765;47.962;7.952;2023-05-25T08:05:13;17.20;55.80
7447;DHT22;3765;47.962;7.952;2023-05-25T08:07:41;17.00;56.10
7447;DHT22;3765;47.962;7.952;2023-05-25T08:10:10;17.10;56.00
7447;DHT22;3765;47.962;7.952;2023-05-25T08:12:40;17.20;56.00
7447;DHT22;3765;47.962;7.952;2023-05-25T08:15:15;17.30;55.80
7447;DHT22;3765;47.962;7.952;2023-05-25T08:17:44;17.50;55.90
7447;DHT22;3765;47.962;7.952;2023-05-25T08:20:13;17.50;55.90
7447;DHT22;3765;47.962;7.952;2023-05-25T08:22:41;17.90;55.80
7447;DHT22;3765;47.962;7.952;2023-05-25T08:25:13;18.10;55.40
7447;DHT22;3765;47.962;7.952;2023-05-25T08:27:43;17.90;55.50
7447;DHT22;3765;47.962;7.952;2023-05-25T08:30:13;18.20;55.50
7447;DHT22;3765;47.962;7.952;2023-05-25T08:32:42;18.10;54.90
7447;DHT22;3765;47.962;7.952;2023-05-25T08:35:11;18.00;54.80
7447;DHT22;3765;47.962;7.952;2023-05-25T08:37:40;17.70;55.20
7447;DHT22;3765;47.962;7.952;2023-05-25T08:40:13;18.00;55.50
7447;DHT22;3765;47.962;7.952;2023-05-25T08:42:44;18.10;55.30
7447;DHT22;3765;47.962;7.952;2023-05-25T08:45:13;18.10;55.20
7447;DHT22;3765;47.962;7.952;2023-05-25T08:48:00;17.90;55.40
7447;DHT22;3765;47.962;7.952;2023-05-25T08:50:31;17.90;55.30
7447;DHT22;3765;47.962;7.952;2023-05-25T08:53:02;17.80;55.40
7447;DHT22;3765;47.962;7.952;2023-05-25T08:55:33;17.90;55.50
7447;DHT22;3765;47.962;7.952;2023-05-25T08:58:10;17.90;55.20
7447;DHT22;3765;47.962;7.952;2023-05-25T09:00:43;17.80;55.20
7447;DHT22;3765;47.962;7.952;2023-05-25T09:03:15;18.00;55.50
7447;DHT22;3765;47.962;7.952;2023-05-25T09:05:45;18.10;55.30
7447;DHT22;3765;47.962;7.952;2023-05-25T09:08:14;18.10;55.30
7447;DHT22;3765;47.962;7.952;2023-05-25T09:10:43;18.20;55.40
7447;DHT22;3765;47.962;7.952;2023-05-25T09:13:13;18.20;55.30
7447;DHT22;3765;47.962;7.952;2023-05-25T09:15:45;18.10;55.20
7447;DHT22;3765;47.962;7.952;2023-05-25T09:18:13;18.40;55.40
7447;DHT22;3765;47.962;7.952;2023-05-25T09:20:41;18.80;55.30
7447;DHT22;3765;47.962;7.952;2023-05-25T09:23:12;18.80;54.70
7447;DHT22;3765;47.962;7.952;2023-05-25T09:25:41;18.80;54.10
7447;DHT22;3765;47.962;7.952;2023-05-25T09:28:10;18.60;54.20
7447;DHT22;3765;47.962;7.952;2023-05-25T09:30:55;18.50;54.50
7447;DHT22;3765;47.962;7.952;2023-05-25T09:33:23;18.50;54.60
7447;DHT22;3765;47.962;7.952;2023-05-25T09:35:51;18.70;54.70
7447;DHT22;3765;47.962;7.952;2023-05-25T09:53:06;18.90;53.60
7447;DHT22;3765;47.962;7.952;2023-05-25T09:55:36;18.90;53.70
7447;DHT22;3765;47.962;7.952;2023-05-25T09:58:22;18.90;54.00
7447;DHT22;3765;47.962;7.952;2023-05-25T10:00:52;19.30;53.70
7447;DHT22;3765;47.962;7.952;2023-05-25T10:03:21;19.60;53.40
7447;DHT22;3765;47.962;7.952;2023-05-25T10:05:51;19.80;53.00
7447;DHT22;3765;47.962;7.952;2023-05-25T10:08:23;19.60;52.80
7447;DHT22;3765;47.962;7.952;2023-05-25T10:10:56;19.70;53.00
7447;DHT22;3765;47.962;7.952;2023-05-25T10:13:26;19.80;52.20
7447;DHT22;3765;47.962;7.952;2023-05-25T10:15:57;19.20;52.60
7447;DHT22;3765;47.962;7.952;2023-05-25T10:18:28;19.20;53.10
7447;DHT22;3765;47.962;7.952;2023-05-25T10:21:01;19.50;52.90
7447;DHT22;3765;47.962;7.952;2023-05-25T10:23:38;19.50;52.30
7447;DHT22;3765;47.962;7.952;2023-05-25T10:26:08;19.30;52.50
7447;DHT22;3765;47.962;7.952;2023-05-25T10:28:41;19.30;52.80
7447;DHT22;3765;47.962;7.952;2023-05-25T10:31:11;19.40;52.60
7447;DHT22;3765;47.962;7.952;2023-05-25T10:33:40;19.70;52.60
7447;DHT22;3765;47.962;7.952;2023-05-25T10:36:16;19.70;52.40
7447;DHT22;3765;47.962;7.952;2023-05-25T10:38:50;19.50;52.30
7447;DHT22;3765;47.962;7.952;2023-05-25T10:41:19;19.30;52.30
7447;DHT22;3765;47.962;7.952;2023-05-25T10:43:47;19.30;52.50
7447;DHT22;3765;47.962;7.952;2023-05-25T10:46:16;19.50;52.50
7447;DHT22;3765;47.962;7.952;2023-05-25T10:48:46;20.10;52.30
7447;DHT22;3765;47.962;7.952;2023-05-25T10:51:18;20.60;52.10
7447;DHT22;3765;47.962;7.952;2023-05-25T10:53:58;20.50;51.30
7447;DHT22;3765;47.962;7.952;2023-05-25T10:56:27;20.80;51.50
7447;DHT22;3765;47.962;7.952;2023-05-25T10:58:55;20.80;51.20
7447;DHT22;3765;47.962;7.952;2023-05-25T11:01:24;20.70;50.80
7447;DHT22;3765;47.962;7.952;2023-05-25T11:03:54;20.60;51.30
7447;DHT22;3765;47.962;7.952;2023-05-25T11:09:40;20.30;50.80
7447;DHT22;3765;47.962;7.952;2023-05-25T11:12:20;20.30;51.20
7447;DHT22;3765;47.962;7.952;2023-05-25T11:15:08;20.50;50.80
7447;DHT22;3765;47.962;7.952;2023-05-25T11:17:58;20.60;50.60
7447;DHT22;3765;47.962;7.952;2023-05-25T11:20:29;20.90;50.40
7447;DHT22;3765;47.962;7.952;2023-05-25T11:22:57;21.00;50.60
7447;DHT22;3765;47.962;7.952;2023-05-25T11:25:37;20.80;50.10
7447;DHT22;3765;47.962;7.952;2023-05-25T11:28:07;21.30;50.20
7447;DHT22;3765;47.962;7.952;2023-05-25T11:30:39;21.10;49.80
7447;DHT22;3765;47.962;7.952;2023-05-25T11:33:08;20.90;50.20
7447;DHT22;3765;47.962;7.952;2023-05-25T11:35:37;20.80;49.80
7447;DHT22;3765;47.962;7.952;2023-05-25T11:38:06;20.70;49.70
7447;DHT22;3765;47.962;7.952;2023-05-25T11:40:36;21.10;50.20
7447;DHT22;3765;47.962;7.952;2023-05-25T11:43:13;21.10;50.10
7447;DHT22;3765;47.962;7.952;2023-05-25T11:45:42;21.00;49.60
7447;DHT22;3765;47.962;7.952;2023-05-25T11:48:12;21.20;49.80
7447;DHT22;3765;47.962;7.952;2023-05-25T11:50:42;21.60;49.80
7447;DHT22;3765;47.962;7.952;2023-05-25T11:53:10;21.50;49.50
7447;DHT22;3765;47.962;7.952;2023-05-25T11:55:45;21.40;49.10
7447;DHT22;3765;47.962;7.952;2023-05-25T11:58:19;21.40;49.30
7447;DHT22;3765;47.962;7.952;2023-05-25T12:00:47;21.60;49.40
7447;DHT22;3765;47.962;7.952;2023-05-25T12:03:28;21.80;48.70
7447;DHT22;3765;47.962;7.952;2023-05-25T12:05:57;21.70;48.70
7447;DHT22;3765;47.962;7.952;2023-05-25T12:08:31;21.80;48.80
7447;DHT22;3765;47.962;7.952;2023-05-25T12:11:01;21.80;48.90
7447;DHT22;3765;47.962;7.952;2023-05-25T12:13:30;22.00;48.50
7447;DHT22;3765;47.962;7.952;2023-05-25T12:15:58;22.10;48.40
7447;DHT22;3765;47.962;7.952;2023-05-25T12:18:27;22.30;48.10
7447;DHT22;3765;47.962;7.952;2023-05-25T12:20:56;22.60;48.00
7447;DHT22;3765;47.962;7.952;2023-05-25T12:23:24;22.50;47.70
7447;DHT22;3765;47.962;7.952;2023-05-25T12:26:09;22.70;47.50
7447;DHT22;3765;47.962;7.952;2023-05-25T12:28:38;22.70;47.40
7447;DHT22;3765;47.962;7.952;2023-05-25T12:31:21;22.60;47.20
7447;DHT22;3765;47.962;7.952;2023-05-25T12:34:07;22.60;47.20
7447;DHT22;3765;47.962;7.952;2023-05-25T12:36:39;23.00;47.10
7447;DHT22;3765;47.962;7.952;2023-05-25T12:39:09;22.90;47.10
7447;DHT22;3765;47.962;7.952;2023-05-25T12:41:48;23.20;46.80
7447;DHT22;3765;47.962;7.952;2023-05-25T12:44:22;23.10;46.70
7447;DHT22;3765;47.962;7.952;2023-05-25T12:46:52;23.50;46.20
7447;DHT22;3765;47.962;7.952;2023-05-25T12:49:25;23.30;46.40
7447;DHT22;3765;47.962;7.952;2023-05-25T12:51:54;23.50;46.40
7447;DHT22;3765;47.962;7.952;2023-05-25T12:54:40;23.30;45.90
7447;DHT22;3765;47.962;7.952;2023-05-25T12:57:12;23.10;46.00
7447;DHT22;3765;47.962;7.952;2023-05-25T12:59:42;23.20;45.50
7447;DHT22;3765;47.962;7.952;2023-05-25T13:02:11;22.80;46.10
7447;DHT22;3765;47.962;7.952;2023-05-25T13:04:40;23.20;45.80
7447;DHT22;3765;47.962;7.952;2023-05-25T13:07:10;23.40;46.20
7447;DHT22;3765;47.962;7.952;2023-05-25T13:09:38;23.70;45.30
7447;DHT22;3765;47.962;7.952;2023-05-25T13:12:07;23.30;45.50
7447;DHT22;3765;47.962;7.952;2023-05-25T13:14:37;23.20;45.70
7447;DHT22;3765;47.962;7.952;2023-05-25T13:17:05;23.80;45.60
7447;DHT22;3765;47.962;7.952;2023-05-25T13:19:33;24.10;45.60
7447;DHT22;3765;47.962;7.952;2023-05-25T13:22:01;24.10;44.70
7447;DHT22;3765;47.962;7.952;2023-05-25T13:24:30;24.30;45.20
7447;DHT22;3765;47.962;7.952;2023-05-25T13:26:58;24.30;44.60
7447;DHT22;3765;47.962;7.952;2023-05-25T13:29:27;24.90;44.50
7447;DHT22;3765;47.962;7.952;2023-05-25T13:31:56;24.90;44.30
7447;DHT22;3765;47.962;7.952;2023-05-25T13:34:26;25.30;44.20
7447;DHT22;3765;47.962;7.952;2023-05-25T13:36:54;25.70;43.70
7447;DHT22;3765;47.962;7.952;2023-05-25T13:39:22;25.20;43.80
7447;DHT22;3765;47.962;7.952;2023-05-25T13:41:50;25.20;43.30
7447;DHT22;3765;47.962;7.952;2023-05-25T13:44:19;25.40;43.30
7447;DHT22;3765;47.962;7.952;2023-05-25T13:46:47;25.80;43.00
7447;DHT22;3765;47.962;7.952;2023-05-25T13:49:16;26.20;42.70
7447;DHT22;3765;47.962;7.952;2023-05-25T13:51:45;26.40;42.00
7447;DHT22;3765;47.962;7.952;2023-05-25T13:54:13;26.40;42.00
7447;DHT22;3765;47.962;7.952;2023-05-25T13:56:41;26.50;41.90
7447;DHT22;3765;47.962;7.952;2023-05-25T13:59:10;26.60;42.00
7447;DHT22;3765;47.962;7.952;2023-05-25T14:01:39;26.80;41.50
7447;DHT22;3765;47.962;7.952;2023-05-25T14:04:07;26.80;41.30
7447;DHT22;3765;47.962;7.952;2023-05-25T14:06:37;26.50;41.10
7447;DHT22;3765;47.962;7.952;2023-05-25T14:09:06;27.00;41.60
7447;DHT22;3765;47.962;7.952;2023-05-25T14:11:35;27.00;40.80
7447;DHT22;3765;47.962;7.952;2023-05-25T14:14:04;26.80;40.20
7447;DHT22;3765;47.962;7.952;2023-05-25T14:16:39;26.80;40.60
7447;DHT22;3765;47.962;7.952;2023-05-25T14:19:07;26.20;40.90
7447;DHT22;3765;47.962;7.952;2023-05-25T14:21:37;26.50;40.40
7447;DHT22;3765;47.962;7.952;2023-05-25T14:24:06;26.60;40.70
7447;DHT22;3765;47.962;7.952;2023-05-25T14:26:34;26.60;40.80
7447;DHT22;3765;47.962;7.952;2023-05-25T14:29:03;26.60;40.50
7447;DHT22;3765;47.962;7.952;2023-05-25T14:31:31;27.60;40.80
7447;DHT22;3765;47.962;7.952;2023-05-25T14:33:59;28.10;39.40
7447;DHT22;3765;47.962;7.952;2023-05-25T14:36:28;27.20;39.70
7447;DHT22;3765;47.962;7.952;2023-05-25T14:38:57;26.60;40.00
7447;DHT22;3765;47.962;7.952;2023-05-25T14:41:25;26.30;40.60
7447;DHT22;3765;47.962;7.952;2023-05-25T14:43:54;26.30;40.60
7447;DHT22;3765;47.962;7.952;2023-05-25T14:46:22;26.70;40.40
7447;DHT22;3765;47.962;7.952;2023-05-25T14:48:50;27.00;39.80
7447;DHT22;3765;47.962;7.952;2023-05-25T14:51:18;26.80;39.70
7447;DHT22;3765;47.962;7.952;2023-05-25T14:53:46;26.60;40.50
7447;DHT22;3765;47.962;7.952;2023-05-25T14:56:19;27.10;40.10
7447;DHT22;3765;47.962;7.952;2023-05-25T14:58:47;27.60;39.60
7447;DHT22;3765;47.962;7.952;2023-05-25T15:01:15;27.20;39.30
7447;DHT22;3765;47.962;7.952;2023-05-25T15:03:43;27.10;39.50
7447;DHT22;3765;47.962;7.952;2023-05-25T15:06:12;26.50;40.00
7447;DHT22;3765;47.962;7.952;2023-05-25T15:08:40;27.20;39.90
7447;DHT22;3765;47.962;7.952;2023-05-25T15:11:08;27.00;39.50
7447;DHT22;3765;47.962;7.952;2023-05-25T15:13:38;26.80;39.80
7447;DHT22;3765;47.962;7.952;2023-05-25T15:16:09;27.20;39.40
7447;DHT22;3765;47.962;7.952;2023-05-25T15:18:38;27.00;39.50
7447;DHT22;3765;47.962;7.952;2023-05-25T15:21:07;26.20;39.70
7447;DHT22;3765;47.962;7.952;2023-05-25T15:23:35;25.40;40.40
7447;DHT22;3765;47.962;7.952;2023-05-25T15:26:03;24.90;40.90
7447;DHT22;3765;47.962;7.952;2023-05-25T15:28:33;24.30;41.80
7447;DHT22;3765;47.962;7.952;2023-05-25T15:31:03;24.30;42.00
7447;DHT22;3765;47.962;7.952;2023-05-25T15:33:31;23.90;42.40
7447;DHT22;3765;47.962;7.952;2023-05-25T15:36:03;24.40;42.90
7447;DHT22;3765;47.962;7.952;2023-05-25T15:38:31;25.40;42.00
7447;DHT22;3765;47.962;7.952;2023-05-25T15:40:59;26.30;41.50
7447;DHT22;3765;47.962;7.952;2023-05-25T15:43:28;25.70;41.30
7447;DHT22;3765;47.962;7.952;2023-05-25T15:45:56;24.90;41.80
7447;DHT22;3765;47.962;7.952;2023-05-25T15:48:25;24.50;42.20
7447;DHT22;3765;47.962;7.952;2023-05-25T15:50:54;24.20;42.60
7447;DHT22;3765;47.962;7.952;2023-05-25T15:53:25;23.80;43.00
7447;DHT22;3765;47.962;7.952;2023-05-25T15:55:53;23.30;43.70
7447;DHT22;3765;47.962;7.952;2023-05-25T15:58:21;23.30;44.00
7447;DHT22;3765;47.962;7.952;2023-05-25T16:00:49;23.20;44.20
7447;DHT22;3765;47.962;7.952;2023-05-25T16:03:18;23.10;44.50
7447;DHT22;3765;47.962;7.952;2023-05-25T16:05:47;23.00;44.70
7447;DHT22;3765;47.962;7.952;2023-05-25T16:08:18;23.10;44.60
7447;DHT22;3765;47.962;7.952;2023-05-25T16:10:46;23.50;45.00
7447;DHT22;3765;47.962;7.952;2023-05-25T16:13:14;23.40;44.70
7447;DHT22;3765;47.962;7.952;2023-05-25T16:15:42;23.30;45.00
7447;DHT22;3765;47.962;7.952;2023-05-25T16:18:12;23.10;45.10
7447;DHT22;3765;47.962;7.952;2023-05-25T16:20:42;23.20;45.30
7447;DHT22;3765;47.962;7.952;2023-05-25T16:23:12;25.00;45.80
7447;DHT22;3765;47.962;7.952;2023-05-25T16:25:42;28.20;40.80
7447;DHT22;3765;47.962;7.952;2023-05-25T16:28:11;25.50;41.50
7447;DHT22;3765;47.962;7.952;2023-05-25T16:30:39;26.00;42.30
7447;DHT22;3765;47.962;7.952;2023-05-25T16:33:08;29.20;40.60
7447;DHT22;3765;47.962;7.952;2023-05-25T16:35:36;32.20;37.20
7447;DHT22;3765;47.962;7.952;2023-05-25T16:38:04;33.10;35.30
7447;DHT22;3765;47.962;7.952;2023-05-25T16:40:34;33.80;34.60
7447;DHT22;3765;47.962;7.952;2023-05-25T16:43:02;34.20;33.70
7447;DHT22;3765;47.962;7.952;2023-05-25T16:45:31;33.90;32.80
7447;DHT22;3765;47.962;7.952;2023-05-25T16:47:59;31.90;32.70
7447;DHT22;3765;47.962;7.952;2023-05-25T16:50:27;30.70;34.70
7447;DHT22;3765;47.962;7.952;2023-05-25T16:52:55;31.80;34.10